Time;durP1;ratioP1;P1;durP2;ratioP2;P2;SDS_P1;SDS_P2;PMS_P1;PMS_P2;Temp;Humidity;BMP_temperature;BMP_pressure;BME280_temperature;BME280_humidity;BME280_pressure;Samples;Min_cycle;Max_cycle;Signal;HPM_P1;HPM_P2
2023/07/13 00:01:20;;;;;;;8.73;2.10;;;;;;;;;;5112406;27;20127;-77
2023/07/13 00:03:48;;;;;;;7.85;2.13;;;;;;;;;;5117080;28;20122;-78
2023/07/13 00:06:14;;;;;;;9.93;2.00;;;;;;;;;;5081687;28;20049;-77
2023/07/13 00:08:41;;;;;;;8.68;2.17;;;;;;;;;;5077101;28;20431;-77
2023/07/13 00:11:07;;;;;;;10.02;1.98;;;;;;;;;;5094812;28;20047;-77
2023/07/13 00:13:33;;;;;;;11.25;2.58;;;;;;;;;;5090732;28;20401;-78
2023/07/13 00:16:00;;;;;;;14.07;2.58;;;;;;;;;;5095214;28;20047;-78
2023/07/13 00:18:29;;;;;;;8.85;2.25;;;;;;;;;;5073756;28;20083;-78
2023/07/13 00:21:04;;;;;;;9.77;2.33;;;;;;;;;;5090599;28;20079;-78
2023/07/13 00:23:30;;;;;;;10.15;2.80;;;;;;;;;;5082168;28;20498;-78
2023/07/13 00:25:57;;;;;;;12.27;2.40;;;;;;;;;;5079515;28;20087;-78
2023/07/13 00:28:23;;;;;;;10.00;2.20;;;;;;;;;;5097150;28;20055;-78
2023/07/13 00:30:49;;;;;;;11.00;2.35;;;;;;;;;;5092578;28;20072;-77
2023/07/13 00:33:16;;;;;;;12.98;2.38;;;;;;;;;;5092313;28;20051;-77
2023/07/13 00:35:43;;;;;;;11.98;2.80;;;;;;;;;;5096654;28;20432;-78
2023/07/13 00:38:09;;;;;;;12.90;2.65;;;;;;;;;;5094248;28;20055;-78
2023/07/13 00:40:36;;;;;;;11.30;2.25;;;;;;;;;;5095626;28;20040;-79
2023/07/13 00:43:02;;;;;;;11.02;2.30;;;;;;;;;;5096474;28;20040;-77
2023/07/13 00:45:29;;;;;;;10.77;2.20;;;;;;;;;;5095933;28;20043;-78
2023/07/13 00:47:56;;;;;;;11.00;2.28;;;;;;;;;;5097830;28;20066;-78
2023/07/13 00:50:23;;;;;;;9.38;2.40;;;;;;;;;;5072635;28;20037;-79
2023/07/13 00:52:53;;;;;;;10.45;2.35;;;;;;;;;;5090764;28;20048;-78
2023/07/13 00:55:19;;;;;;;8.50;2.57;;;;;;;;;;5083630;28;20048;-78
2023/07/13 00:57:45;;;;;;;10.25;2.47;;;;;;;;;;5093077;28;20047;-79
2023/07/13 01:00:12;;;;;;;7.35;2.17;;;;;;;;;;5072465;28;20880;-78
2023/07/13 01:02:39;;;;;;;14.00;2.60;;;;;;;;;;5094266;28;20075;-77
2023/07/13 01:05:15;;;;;;;10.77;2.42;;;;;;;;;;5104318;28;20056;-78
2023/07/13 01:07:42;;;;;;;11.82;2.53;;;;;;;;;;5096434;28;20046;-78
2023/07/13 01:10:09;;;;;;;11.43;2.72;;;;;;;;;;5108077;28;20493;-79
2023/07/13 01:12:35;;;;;;;9.25;2.33;;;;;;;;;;5101565;28;20036;-79
2023/07/13 01:15:04;;;;;;;12.38;2.60;;;;;;;;;;5102846;28;20040;-78
2023/07/13 01:17:31;;;;;;;11.25;2.47;;;;;;;;;;5103812;28;20421;-79
2023/07/13 01:19:57;;;;;;;12.30;2.63;;;;;;;;;;5099643;28;20040;-78
2023/07/13 01:22:26;;;;;;;10.23;2.53;;;;;;;;;;5113610;28;20054;-78
2023/07/13 01:24:53;;;;;;;13.15;2.63;;;;;;;;;;5115889;28;20036;-78
2023/07/13 01:27:27;;;;;;;9.52;2.60;;;;;;;;;;5117224;28;20070;-78
2023/07/13 01:30:03;;;;;;;17.08;3.58;;;;;;;;;;5115785;28;20195;-80
2023/07/13 01:32:31;;;;;;;10.18;2.60;;;;;;;;;;5095242;28;20066;-78
2023/07/13 01:34:57;;;;;;;8.85;2.63;;;;;;;;;;5116485;28;20047;-79
2023/07/13 01:37:24;;;;;;;12.45;2.70;;;;;;;;;;5116062;28;20047;-78
2023/07/13 01:39:51;;;;;;;12.32;2.58;;;;;;;;;;5097848;28;20047;-77
2023/07/13 01:42:17;;;;;;;12.23;2.55;;;;;;;;;;5116355;28;20051;-77
2023/07/13 01:44:44;;;;;;;12.18;3.10;;;;;;;;;;5117620;28;20412;-77
2023/07/13 01:47:10;;;;;;;12.55;2.72;;;;;;;;;;5112224;27;20048;-78
2023/07/13 01:49:37;;;;;;;13.18;2.78;;;;;;;;;;5115894;28;20561;-78
2023/07/13 01:52:04;;;;;;;8.90;2.35;;;;;;;;;;5115287;27;20066;-77
2023/07/13 01:54:30;;;;;;;13.15;2.60;;;;;;;;;;5117356;27;20043;-78
2023/07/13 01:56:56;;;;;;;14.20;2.55;;;;;;;;;;5116649;28;20035;-78
2023/07/13 01:59:22;;;;;;;11.15;2.85;;;;;;;;;;5110116;28;20040;-77
2023/07/13 02:01:48;;;;;;;12.15;2.70;;;;;;;;;;5113655;27;20134;-78
2023/07/13 02:04:14;;;;;;;12.77;2.88;;;;;;;;;;5096746;28;20039;-79
2023/07/13 02:06:41;;;;;;;12.32;2.80;;;;;;;;;;5096214;28;20106;-78
2023/07/13 02:09:07;;;;;;;11.98;3.05;;;;;;;;;;5093031;28;20131;-77
2023/07/13 02:11:33;;;;;;;10.88;2.50;;;;;;;;;;5099353;28;20097;-77
2023/07/13 02:14:01;;;;;;;11.93;2.58;;;;;;;;;;5078855;28;20079;-77
2023/07/13 02:16:27;;;;;;;12.23;2.90;;;;;;;;;;5087187;28;20098;-77
2023/07/13 02:18:55;;;;;;;9.63;2.83;;;;;;;;;;5089502;28;20040;-78
2023/07/13 02:21:21;;;;;;;14.05;3.05;;;;;;;;;;5092378;28;20417;-77
2023/07/13 02:23:48;;;;;;;10.82;3.13;;;;;;;;;;5096166;28;20047;-78
2023/07/13 02:26:14;;;;;;;13.95;3.63;;;;;;;;;;5094771;28;20115;-77
2023/07/13 02:28:40;;;;;;;13.57;3.15;;;;;;;;;;5095472;28;20047;-77
2023/07/13 02:31:07;;;;;;;12.27;2.72;;;;;;;;;;5094093;28;20055;-77
2023/07/13 02:33:33;;;;;;;8.95;2.63;;;;;;;;;;5095105;28;20048;-78
2023/07/13 02:35:59;;;;;;;14.05;2.92;;;;;;;;;;5094470;28;20043;-77
2023/07/13 02:38:25;;;;;;;12.90;2.78;;;;;;;;;;5087549;28;20059;-77
2023/07/13 02:40:52;;;;;;;11.25;3.08;;;;;;;;;;5094303;28;20040;-78
2023/07/13 02:43:18;;;;;;;14.43;2.78;;;;;;;;;;5094235;28;20047;-78
2023/07/13 02:45:44;;;;;;;12.70;2.75;;;;;;;;;;5094610;28;20047;-77
2023/07/13 02:48:10;;;;;;;12.27;2.83;;;;;;;;;;5093443;28;20040;-77
2023/07/13 02:50:37;;;;;;;13.15;3.05;;;;;;;;;;5084715;28;20048;-78
2023/07/13 02:53:03;;;;;;;11.43;2.53;;;;;;;;;;5093342;28;20066;-77
2023/07/13 02:55:29;;;;;;;14.05;2.65;;;;;;;;;;5092661;28;20409;-77
2023/07/13 02:57:55;;;;;;;7.82;2.55;;;;;;;;;;5090568;28;20370;-77
2023/07/13 03:00:21;;;;;;;16.67;3.15;;;;;;;;;;5091310;28;20546;-77
2023/07/13 03:02:48;;;;;;;11.88;2.90;;;;;;;;;;5092397;28;20052;-77
2023/07/13 03:05:14;;;;;;;11.02;3.00;;;;;;;;;;5102661;28;20051;-78
2023/07/13 03:07:41;;;;;;;14.13;2.83;;;;;;;;;;5112768;28;20058;-77
2023/07/13 03:10:08;;;;;;;10.73;2.88;;;;;;;;;;5105968;28;20048;-77
2023/07/13 03:12:34;;;;;;;14.32;3.42;;;;;;;;;;5112916;28;20036;-77
2023/07/13 03:15:00;;;;;;;13.38;3.13;;;;;;;;;;5111401;28;20048;-77
2023/07/13 03:17:26;;;;;;;13.27;3.00;;;;;;;;;;5106271;28;20134;-78
2023/07/13 03:19:52;;;;;;;12.82;3.03;;;;;;;;;;5107230;28;20126;-77
2023/07/13 03:22:19;;;;;;;12.82;3.45;;;;;;;;;;5086317;28;20120;-77
2023/07/13 03:24:45;;;;;;;12.30;2.90;;;;;;;;;;5099655;28;20043;-79
2023/07/13 03:27:12;;;;;;;16.05;3.70;;;;;;;;;;5116178;27;20382;-79
2023/07/13 03:29:38;;;;;;;14.05;3.33;;;;;;;;;;5092103;27;20115;-77
2023/07/13 03:32:04;;;;;;;13.65;3.40;;;;;;;;;;5106657;27;20040;-78
2023/07/13 03:34:30;;;;;;;12.80;2.95;;;;;;;;;;5116250;28;20066;-79
2023/07/13 03:36:57;;;;;;;14.63;3.22;;;;;;;;;;5116429;28;20085;-77
2023/07/13 03:39:23;;;;;;;16.50;3.30;;;;;;;;;;5102255;27;20052;-79
2023/07/13 03:41:50;;;;;;;16.42;3.40;;;;;;;;;;5087804;28;20036;-78
2023/07/13 03:44:17;;;;;;;17.35;3.05;;;;;;;;;;5117315;28;20048;-78
2023/07/13 03:46:43;;;;;;;13.07;2.97;;;;;;;;;;5097611;27;20092;-78
2023/07/13 03:49:09;;;;;;;15.52;3.35;;;;;;;;;;5114067;27;20177;-78
2023/07/13 03:51:35;;;;;;;14.98;3.78;;;;;;;;;;5108450;27;20059;-77
2023/07/13 03:54:02;;;;;;;13.98;3.00;;;;;;;;;;5108503;27;20421;-78
2023/07/13 03:56:30;;;;;;;12.95;3.38;;;;;;;;;;5115005;28;20039;-78
2023/07/13 03:58:56;;;;;;;14.85;3.22;;;;;;;;;;5075938;27;20053;-78
2023/07/13 04:01:23;;;;;;;17.48;3.08;;;;;;;;;;5076087;27;20481;-77
2023/07/13 04:03:49;;;;;;;11.55;3.00;;;;;;;;;;5106015;27;20117;-78
2023/07/13 04:06:24;;;;;;;14.10;2.97;;;;;;;;;;5106977;27;20091;-77
2023/07/13 04:08:52;;;;;;;12.07;3.30;;;;;;;;;;5104447;27;20039;-78
2023/07/13 04:11:19;;;;;;;14.00;3.40;;;;;;;;;;5105866;27;20405;-78
2023/07/13 04:13:45;;;;;;;14.18;3.83;;;;;;;;;;5113439;27;20043;-77
2023/07/13 04:16:11;;;;;;;17.42;3.60;;;;;;;;;;5111883;27;20039;-78
2023/07/13 04:18:38;;;;;;;13.15;3.10;;;;;;;;;;5120046;28;20047;-78
2023/07/13 04:21:04;;;;;;;14.63;3.58;;;;;;;;;;5118372;28;20047;-77
2023/07/13 04:23:33;;;;;;;18.92;3.90;;;;;;;;;;5093215;28;20059;-79
2023/07/13 04:25:59;;;;;;;15.93;3.47;;;;;;;;;;5108154;28;20070;-78
2023/07/13 04:28:26;;;;;;;16.80;3.67;;;;;;;;;;5116771;28;20039;-78
2023/07/13 04:30:53;;;;;;;16.10;3.35;;;;;;;;;;5115690;28;20455;-80
2023/07/13 04:33:22;;;;;;;11.05;3.35;;;;;;;;;;5115000;28;20044;-78
2023/07/13 04:35:56;;;;;;;12.35;3.72;;;;;;;;;;5112034;27;20051;-78
2023/07/13 04:38:27;;;;;;;14.23;3.70;;;;;;;;;;5114887;28;20064;-79
2023/07/13 04:40:54;;;;;;;15.05;3.67;;;;;;;;;;5101253;28;20043;-79
2023/07/13 04:43:20;;;;;;;13.43;3.55;;;;;;;;;;5118172;27;20069;-78
2023/07/13 04:45:46;;;;;;;11.75;3.50;;;;;;;;;;5101806;28;20054;-78
2023/07/13 04:48:13;;;;;;;14.23;3.85;;;;;;;;;;5107981;28;20497;-78
2023/07/13 04:50:39;;;;;;;15.85;3.85;;;;;;;;;;5103007;28;20043;-78
2023/07/13 04:53:05;;;;;;;15.20;3.97;;;;;;;;;;5100330;27;20032;-79
2023/07/13 04:55:32;;;;;;;13.02;3.47;;;;;;;;;;5121657;27;20040;-78
2023/07/13 04:57:58;;;;;;;14.32;3.55;;;;;;;;;;5121841;28;20040;-78
2023/07/13 05:00:25;;;;;;;9.68;3.35;;;;;;;;;;5100419;27;20107;-78
2023/07/13 05:02:51;;;;;;;13.88;3.53;;;;;;;;;;5117709;27;20048;-80
2023/07/13 05:05:17;;;;;;;11.20;3.35;;;;;;;;;;5115117;27;20052;-79
2023/07/13 05:07:43;;;;;;;15.25;3.80;;;;;;;;;;5115168;27;20088;-78
2023/07/13 05:10:10;;;;;;;13.55;3.80;;;;;;;;;;5119039;27;20046;-78
2023/07/13 05:12:36;;;;;;;10.75;3.78;;;;;;;;;;5119645;27;20043;-78
2023/07/13 05:15:02;;;;;;;14.30;3.83;;;;;;;;;;5119393;27;20086;-78
2023/07/13 05:17:29;;;;;;;12.82;3.72;;;;;;;;;;5117636;27;20039;-78
2023/07/13 05:19:55;;;;;;;12.50;3.67;;;;;;;;;;5114120;27;20044;-78
2023/07/13 05:22:21;;;;;;;14.20;3.78;;;;;;;;;;5116006;27;20051;-78
2023/07/13 05:24:47;;;;;;;9.13;3.45;;;;;;;;;;5114455;28;20040;-78
2023/07/13 05:27:13;;;;;;;14.10;3.75;;;;;;;;;;5120656;28;20042;-78
2023/07/13 05:29:39;;;;;;;14.90;3.88;;;;;;;;;;5109770;28;20051;-78
2023/07/13 05:32:06;;;;;;;16.45;4.00;;;;;;;;;;5114116;28;20130;-79
2023/07/13 05:34:32;;;;;;;17.35;4.25;;;;;;;;;;5116906;28;20035;-78
2023/07/13 05:36:58;;;;;;;16.45;3.80;;;;;;;;;;5099938;28;20051;-78
2023/07/13 05:39:26;;;;;;;12.48;3.47;;;;;;;;;;5093488;28;20071;-77
2023/07/13 05:41:52;;;;;;;16.02;3.78;;;;;;;;;;5107175;27;20097;-78
2023/07/13 05:44:19;;;;;;;16.45;3.67;;;;;;;;;;5111926;28;20078;-78
2023/07/13 05:46:45;;;;;;;15.27;3.70;;;;;;;;;;5113594;28;20374;-78
2023/07/13 05:49:11;;;;;;;13.93;3.60;;;;;;;;;;5109746;28;20039;-79
2023/07/13 05:51:37;;;;;;;9.73;2.70;;;;;;;;;;5104057;28;20105;-78
2023/07/13 05:54:04;;;;;;;12.77;3.75;;;;;;;;;;5096660;28;20095;-79
2023/07/13 05:56:30;;;;;;;11.98;3.55;;;;;;;;;;5105380;28;20048;-79
2023/07/13 05:58:59;;;;;;;13.70;3.47;;;;;;;;;;5090823;28;20489;-78
2023/07/13 06:01:25;;;;;;;11.38;2.97;;;;;;;;;;5089953;28;20048;-77
2023/07/13 06:03:51;;;;;;;11.30;3.13;;;;;;;;;;5110728;27;20078;-79
2023/07/13 06:06:18;;;;;;;12.50;3.40;;;;;;;;;;5110561;27;20055;-77
2023/07/13 06:08:44;;;;;;;10.30;3.08;;;;;;;;;;5108787;27;20046;-78
2023/07/13 06:11:14;;;;;;;10.98;2.78;;;;;;;;;;5107225;27;20076;-78
2023/07/13 06:13:41;;;;;;;12.73;3.22;;;;;;;;;;5099144;28;20048;-78
2023/07/13 06:16:08;;;;;;;12.00;2.97;;;;;;;;;;5102566;28;20083;-78
2023/07/13 06:18:35;;;;;;;11.27;2.80;;;;;;;;;;5112907;28;20047;-79
2023/07/13 06:21:01;;;;;;;11.85;3.67;;;;;;;;;;5118657;28;20048;-77
2023/07/13 06:23:27;;;;;;;12.07;3.30;;;;;;;;;;5099032;27;20078;-78
2023/07/13 06:25:53;;;;;;;10.52;3.13;;;;;;;;;;5122550;28;20036;-78
2023/07/13 06:28:20;;;;;;;10.32;2.83;;;;;;;;;;5125273;28;20474;-78
2023/07/13 06:30:46;;;;;;;11.38;2.70;;;;;;;;;;5123176;28;20059;-77
2023/07/13 06:33:12;;;;;;;10.77;2.90;;;;;;;;;;5124786;28;20035;-78
2023/07/13 06:35:38;;;;;;;9.65;2.90;;;;;;;;;;5103183;28;20044;-78
2023/07/13 06:38:04;;;;;;;11.60;3.08;;;;;;;;;;5125446;28;20417;-80
2023/07/13 06:40:31;;;;;;;13.27;3.63;;;;;;;;;;5127692;28;20040;-77
2023/07/13 06:42:57;;;;;;;12.15;2.85;;;;;;;;;;5127335;28;20078;-79
2023/07/13 06:45:23;;;;;;;11.13;2.90;;;;;;;;;;5129921;28;20044;-78
2023/07/13 06:47:49;;;;;;;11.52;2.90;;;;;;;;;;5128958;28;20039;-78
2023/07/13 06:50:16;;;;;;;8.88;3.00;;;;;;;;;;5127254;28;20095;-78
2023/07/13 06:52:42;;;;;;;8.50;2.63;;;;;;;;;;5127400;28;20047;-78
2023/07/13 06:55:08;;;;;;;10.05;2.85;;;;;;;;;;5112896;28;20536;-79
2023/07/13 06:57:34;;;;;;;12.68;3.20;;;;;;;;;;5113844;28;20040;-79
2023/07/13 07:00:00;;;;;;;12.85;2.85;;;;;;;;;;5111649;28;20566;-79
2023/07/13 07:02:26;;;;;;;11.93;3.10;;;;;;;;;;5115575;27;20067;-80
2023/07/13 07:04:54;;;;;;;14.43;3.00;;;;;;;;;;5110666;28;20060;-78
2023/07/13 07:07:20;;;;;;;11.75;3.35;;;;;;;;;;5096749;28;20052;-79
2023/07/13 07:09:46;;;;;;;13.10;3.50;;;;;;;;;;5096775;28;20048;-78
2023/07/13 07:12:12;;;;;;;9.52;2.60;;;;;;;;;;5096151;28;20094;-79
2023/07/13 07:14:38;;;;;;;9.43;2.80;;;;;;;;;;5095491;28;20052;-78
2023/07/13 07:17:04;;;;;;;11.57;3.08;;;;;;;;;;5103437;28;20099;-78
2023/07/13 07:19:31;;;;;;;10.57;3.28;;;;;;;;;;5114008;28;20066;-80
2023/07/13 07:21:57;;;;;;;11.77;3.00;;;;;;;;;;5114435;28;20051;-79
2023/07/13 07:24:23;;;;;;;10.35;2.80;;;;;;;;;;5113017;28;20082;-80
2023/07/13 07:26:49;;;;;;;12.60;2.97;;;;;;;;;;5098600;28;20609;-79
2023/07/13 07:29:15;;;;;;;11.80;3.00;;;;;;;;;;5074454;28;20055;-79
2023/07/13 07:31:42;;;;;;;10.30;2.90;;;;;;;;;;5090226;28;20044;-79
2023/07/13 07:34:08;;;;;;;8.30;2.50;;;;;;;;;;5096094;28;20051;-78
2023/07/13 07:36:34;;;;;;;9.15;2.60;;;;;;;;;;5094738;28;20040;-79
2023/07/13 07:39:01;;;;;;;10.52;3.03;;;;;;;;;;5110263;28;20040;-80
2023/07/13 07:41:27;;;;;;;12.10;2.90;;;;;;;;;;5088823;28;20055;-78
2023/07/13 07:43:53;;;;;;;11.32;2.75;;;;;;;;;;5089983;28;20044;-78
2023/07/13 07:46:19;;;;;;;10.50;3.10;;;;;;;;;;5108057;28;20055;-79
2023/07/13 07:48:45;;;;;;;9.48;2.90;;;;;;;;;;5088650;28;20060;-78
2023/07/13 07:51:11;;;;;;;13.73;2.80;;;;;;;;;;5103336;28;20119;-78
2023/07/13 07:53:38;;;;;;;12.18;2.70;;;;;;;;;;5107045;28;20047;-78
2023/07/13 07:56:04;;;;;;;10.45;3.00;;;;;;;;;;5110018;28;20075;-79
2023/07/13 07:58:30;;;;;;;11.43;2.50;;;;;;;;;;5107347;28;20066;-78
2023/07/13 08:01:02;;;;;;;14.57;3.22;;;;;;;;;;5086874;28;20040;-78
2023/07/13 08:03:28;;;;;;;12.85;2.88;;;;;;;;;;5100154;28;20131;-79
2023/07/13 08:05:54;;;;;;;12.25;3.05;;;;;;;;;;5096748;28;20083;-78
2023/07/13 08:08:21;;;;;;;9.18;2.70;;;;;;;;;;5099496;28;20037;-79
2023/07/13 08:10:47;;;;;;;11.18;2.90;;;;;;;;;;5103137;28;20085;-79
2023/07/13 08:13:13;;;;;;;7.95;2.65;;;;;;;;;;5103192;28;20044;-79
2023/07/13 08:15:40;;;;;;;11.10;2.60;;;;;;;;;;5104049;28;20071;-79
2023/07/13 08:18:07;;;;;;;10.35;2.70;;;;;;;;;;5116224;28;20053;-78
2023/07/13 08:20:34;;;;;;;12.57;2.85;;;;;;;;;;5098734;28;20180;-79
2023/07/13 08:23:00;;;;;;;10.95;2.92;;;;;;;;;;5104483;28;20040;-79
2023/07/13 08:25:26;;;;;;;10.25;3.08;;;;;;;;;;5101555;28;20055;-79
2023/07/13 08:27:52;;;;;;;12.57;2.78;;;;;;;;;;5102706;28;20050;-80
2023/07/13 08:30:18;;;;;;;12.50;3.28;;;;;;;;;;5102056;28;20074;-79
2023/07/13 08:32:44;;;;;;;12.30;3.30;;;;;;;;;;5106129;28;20048;-80
2023/07/13 08:35:11;;;;;;;11.40;3.22;;;;;;;;;;5105424;28;20103;-80
2023/07/13 08:37:37;;;;;;;12.13;3.03;;;;;;;;;;5105408;28;20040;-79
2023/07/13 08:40:04;;;;;;;11.80;3.45;;;;;;;;;;5103193;28;20032;-79
2023/07/13 08:42:48;;;;;;;10.63;3.50;;;;;;;;;;5104565;28;20051;-80
2023/07/13 08:45:19;;;;;;;10.38;3.38;;;;;;;;;;5086011;28;20127;-81
2023/07/13 08:47:49;;;;;;;11.73;3.20;;;;;;;;;;5096136;28;20502;-82
2023/07/13 08:50:17;;;;;;;12.82;3.53;;;;;;;;;;5107034;28;20048;-83
2023/07/13 08:52:44;;;;;;;11.30;2.83;;;;;;;;;;5119942;28;20047;-83
2023/07/13 08:55:14;;;;;;;13.55;3.53;;;;;;;;;;5104798;28;20135;-84
2023/07/13 08:57:42;;;;;;;13.00;3.35;;;;;;;;;;5098870;28;20036;-85
2023/07/13 09:00:12;;;;;;;11.07;3.60;;;;;;;;;;5105664;28;20119;-82
2023/07/13 09:02:52;;;;;;;13.80;3.88;;;;;;;;;;5103565;28;20040;-83
2023/07/13 09:05:23;;;;;;;12.45;3.10;;;;;;;;;;5101669;28;20623;-82
2023/07/13 09:07:49;;;;;;;12.38;3.13;;;;;;;;;;5099781;28;20050;-81
2023/07/13 09:10:20;;;;;;;15.65;3.65;;;;;;;;;;5105749;28;20050;-82
2023/07/13 09:12:47;;;;;;;12.95;3.42;;;;;;;;;;5102993;28;20131;-82
2023/07/13 09:15:34;;;;;;;10.50;3.30;;;;;;;;;;5102944;28;20068;-83
2023/07/13 09:18:10;;;;;;;8.82;2.88;;;;;;;;;;5103278;28;20052;-81
2023/07/13 09:20:45;;;;;;;10.25;3.25;;;;;;;;;;5102185;28;20048;-82
2023/07/13 09:23:19;;;;;;;10.38;3.13;;;;;;;;;;5103086;28;20055;-82
2023/07/13 09:25:47;;;;;;;11.45;3.30;;;;;;;;;;5102333;28;20147;-81
2023/07/13 09:28:16;;;;;;;8.30;2.53;;;;;;;;;;5105296;28;20048;-81
2023/07/13 09:31:01;;;;;;;8.32;2.20;;;;;;;;;;5124485;28;20040;-84
2023/07/13 09:33:29;;;;;;;8.88;2.40;;;;;;;;;;5122619;28;20043;-84
2023/07/13 09:35:58;;;;;;;7.75;2.58;;;;;;;;;;5104885;28;20109;-82
2023/07/13 09:38:25;;;;;;;9.57;2.88;;;;;;;;;;5100053;28;20051;-78
2023/07/13 09:40:54;;;;;;;8.63;2.75;;;;;;;;;;5102856;28;20044;-82
2023/07/13 09:43:21;;;;;;;7.68;2.42;;;;;;;;;;5102797;28;20051;-85
2023/07/13 09:45:47;;;;;;;10.43;2.67;;;;;;;;;;5101707;28;20052;-82
2023/07/13 09:48:14;;;;;;;10.57;3.10;;;;;;;;;;5097215;28;20036;-81
2023/07/13 09:50:41;;;;;;;7.28;2.65;;;;;;;;;;5079561;28;20080;-81
2023/07/13 09:53:14;;;;;;;9.45;2.83;;;;;;;;;;5079854;28;20041;-85
2023/07/13 09:55:42;;;;;;;7.75;2.55;;;;;;;;;;5081341;28;20044;-81
2023/07/13 09:58:15;;;;;;;8.07;2.55;;;;;;;;;;5060049;28;20044;-79
2023/07/13 10:00:43;;;;;;;6.57;2.08;;;;;;;;;;5076540;28;20177;-79
2023/07/13 10:03:15;;;;;;;6.18;1.90;;;;;;;;;;5076295;28;20125;-79
2023/07/13 10:05:43;;;;;;;5.25;2.00;;;;;;;;;;5108402;27;20155;-77
2023/07/13 10:08:19;;;;;;;5.97;1.98;;;;;;;;;;5117911;28;20051;-79
2023/07/13 10:10:45;;;;;;;6.90;1.90;;;;;;;;;;5116457;27;20046;-79
2023/07/13 10:13:28;;;;;;;8.38;1.70;;;;;;;;;;5117235;28;20128;-79
2023/07/13 10:15:56;;;;;;;6.15;1.30;;;;;;;;;;5116006;28;20048;-79
2023/07/13 10:18:22;;;;;;;5.22;1.50;;;;;;;;;;5113743;28;20048;-79
2023/07/13 10:20:51;;;;;;;7.85;1.73;;;;;;;;;;5116939;28;20082;-79
2023/07/13 10:23:27;;;;;;;4.00;1.40;;;;;;;;;;5082279;28;20478;-79
2023/07/13 10:25:57;;;;;;;5.85;1.50;;;;;;;;;;5114466;27;20112;-80
2023/07/13 10:28:35;;;;;;;5.00;1.42;;;;;;;;;;5118431;28;20112;-79
2023/07/13 10:31:03;;;;;;;3.78;1.40;;;;;;;;;;5118849;28;20059;-80
2023/07/13 10:33:29;;;;;;;4.07;1.58;;;;;;;;;;5094433;28;20206;-80
2023/07/13 10:36:02;;;;;;;5.13;1.50;;;;;;;;;;5098250;28;20044;-79
2023/07/13 10:38:28;;;;;;;3.80;1.23;;;;;;;;;;5111570;28;20154;-80
2023/07/13 10:41:04;;;;;;;4.97;1.20;;;;;;;;;;5119470;28;20040;-79
2023/07/13 10:43:38;;;;;;;4.60;1.35;;;;;;;;;;5120569;28;20447;-79
2023/07/13 10:46:06;;;;;;;3.60;1.23;;;;;;;;;;5122013;28;20048;-79
2023/07/13 10:48:34;;;;;;;3.92;1.52;;;;;;;;;;5105701;28;20043;-80
2023/07/13 10:51:01;;;;;;;3.83;1.52;;;;;;;;;;5120828;28;20043;-80
2023/07/13 10:53:35;;;;;;;4.95;1.80;;;;;;;;;;5094874;28;20036;-79
2023/07/13 10:56:02;;;;;;;5.07;1.77;;;;;;;;;;5114023;28;20150;-78
2023/07/13 10:58:34;;;;;;;4.68;1.90;;;;;;;;;;5105413;28;20143;-79
2023/07/13 11:01:06;;;;;;;6.90;2.28;;;;;;;;;;5121689;28;20554;-78
2023/07/13 11:03:50;;;;;;;5.78;1.98;;;;;;;;;;5122114;28;20124;-80
2023/07/13 11:06:16;;;;;;;5.15;2.03;;;;;;;;;;5104596;28;20122;-79
2023/07/13 11:08:48;;;;;;;7.35;2.20;;;;;;;;;;5101903;28;20543;-79
2023/07/13 11:11:26;;;;;;;6.85;2.08;;;;;;;;;;5088080;28;20047;-79
2023/07/13 11:13:53;;;;;;;5.43;2.40;;;;;;;;;;5097535;28;20120;-78
2023/07/13 11:16:19;;;;;;;6.65;2.20;;;;;;;;;;5076230;28;20093;-77
2023/07/13 11:18:46;;;;;;;6.43;2.33;;;;;;;;;;5094715;28;20036;-78
2023/07/13 11:21:15;;;;;;;7.00;2.30;;;;;;;;;;5094813;28;20048;-78
2023/07/13 11:23:47;;;;;;;7.18;2.53;;;;;;;;;;5094493;28;20048;-78
2023/07/13 11:26:31;;;;;;;8.35;3.13;;;;;;;;;;5099329;28;20048;-78
2023/07/13 11:28:57;;;;;;;7.05;2.60;;;;;;;;;;5110079;28;20047;-79
2023/07/13 11:31:23;;;;;;;6.93;2.40;;;;;;;;;;5113158;28;20128;-78
2023/07/13 11:33:52;;;;;;;8.98;2.78;;;;;;;;;;5111142;28;20080;-78
2023/07/13 11:36:22;;;;;;;7.43;2.70;;;;;;;;;;5111994;28;20062;-77
2023/07/13 11:39:00;;;;;;;7.00;2.55;;;;;;;;;;5094743;28;20115;-78
2023/07/13 11:41:31;;;;;;;7.55;2.53;;;;;;;;;;5101720;28;20075;-76
2023/07/13 11:43:57;;;;;;;;;;;;;;;;;;5114923;28;20044;-78
2023/07/13 11:46:25;;;;;;;6.78;1.90;;;;;;;;;;5116493;28;19920;-78
2023/07/13 11:48:51;;;;;;;5.55;1.83;;;;;;;;;;5116912;28;20040;-77
2023/07/13 11:51:23;;;;;;;6.00;2.42;;;;;;;;;;5125265;27;20092;-76
2023/07/13 11:53:50;;;;;;;6.28;2.47;;;;;;;;;;5107456;28;20047;-77
2023/07/13 11:56:16;;;;;;;7.75;2.58;;;;;;;;;;5100233;28;20058;-78
2023/07/13 11:58:43;;;;;;;7.18;2.70;;;;;;;;;;5116654;27;20086;-78
2023/07/13 12:01:22;;;;;;;4.78;1.90;;;;;;;;;;5115603;28;20088;-78
2023/07/13 12:03:49;;;;;;;5.97;2.30;;;;;;;;;;5116100;28;20043;-77
2023/07/13 12:06:27;;;;;;;6.28;2.30;;;;;;;;;;5113792;27;20048;-79
2023/07/13 12:08:56;;;;;;;4.88;1.98;;;;;;;;;;5115188;28;20512;-78
2023/07/13 12:11:22;;;;;;;5.05;1.90;;;;;;;;;;5115884;28;20040;-78
2023/07/13 12:13:48;;;;;;;4.93;1.80;;;;;;;;;;5116271;28;20047;-77
2023/07/13 12:16:16;;;;;;;6.20;1.83;;;;;;;;;;5116433;28;20048;-77
2023/07/13 12:18:45;;;;;;;4.53;1.70;;;;;;;;;;5113207;28;20039;-77
2023/07/13 12:21:14;;;;;;;6.53;2.20;;;;;;;;;;5098712;28;20046;-78
2023/07/13 12:23:40;;;;;;;6.63;1.95;;;;;;;;;;5115067;28;20104;-77
2023/07/13 12:26:09;;;;;;;5.68;2.03;;;;;;;;;;5116210;28;20040;-78
2023/07/13 12:28:52;;;;;;;5.55;2.00;;;;;;;;;;5100187;28;20055;-78
2023/07/13 12:31:26;;;;;;;6.55;2.00;;;;;;;;;;5098695;28;20047;-78
2023/07/13 12:33:59;;;;;;;6.18;2.10;;;;;;;;;;5117950;28;20035;-78
2023/07/13 12:36:26;;;;;;;5.80;2.08;;;;;;;;;;5099248;28;20063;-78
2023/07/13 12:38:53;;;;;;;7.63;2.42;;;;;;;;;;5117589;28;20093;-78
2023/07/13 12:41:20;;;;;;;9.02;2.50;;;;;;;;;;5092522;28;20055;-77
2023/07/13 12:43:46;;;;;;;7.85;2.35;;;;;;;;;;5118214;28;20063;-78
2023/07/13 12:46:18;;;;;;;7.80;2.58;;;;;;;;;;5116205;28;20401;-77
2023/07/13 12:48:48;;;;;;;6.65;2.45;;;;;;;;;;5117545;28;20043;-82
2023/07/13 12:51:14;;;;;;;7.13;2.45;;;;;;;;;;5106440;28;20043;-82
2023/07/13 12:53:41;;;;;;;9.93;2.30;;;;;;;;;;5124955;28;20048;-81
2023/07/13 12:56:12;;;;;;;8.82;2.53;;;;;;;;;;5124214;28;20058;-82
2023/07/13 12:58:43;;;;;;;142.20;8.50;;;;;;;;;;5109318;28;20154;-81
2023/07/13 13:01:12;;;;;;;7.18;2.40;;;;;;;;;;5104752;28;20085;-81
2023/07/13 13:03:51;;;;;;;8.07;2.55;;;;;;;;;;5122404;28;20043;-80
2023/07/13 13:06:20;;;;;;;8.48;2.33;;;;;;;;;;5105580;28;20062;-82
2023/07/13 13:08:52;;;;;;;7.85;2.13;;;;;;;;;;5099392;28;20043;-81
2023/07/13 13:11:19;;;;;;;9.10;2.20;;;;;;;;;;5085445;28;20056;-82
2023/07/13 13:13:49;;;;;;;6.30;1.98;;;;;;;;;;5121004;28;20061;-82
2023/07/13 13:16:19;;;;;;;7.53;2.08;;;;;;;;;;5126016;27;20039;-80
2023/07/13 13:18:46;;;;;;;5.75;1.50;;;;;;;;;;5124706;28;20069;-83
2023/07/13 13:21:12;;;;;;;5.93;1.75;;;;;;;;;;5124893;28;20054;-80
2023/07/13 13:23:38;;;;;;;5.30;1.40;;;;;;;;;;5125083;28;20087;-82
2023/07/13 13:26:08;;;;;;;4.53;1.40;;;;;;;;;;5104824;28;20044;-81
2023/07/13 13:28:35;;;;;;;7.13;1.42;;;;;;;;;;5125047;28;20047;-81
2023/07/13 13:31:01;;;;;;;6.38;1.55;;;;;;;;;;5125928;27;20099;-81
2023/07/13 13:33:27;;;;;;;5.78;1.52;;;;;;;;;;5104891;28;20063;-80
2023/07/13 13:35:53;;;;;;;5.93;1.33;;;;;;;;;;5124389;28;20485;-82
2023/07/13 13:38:21;;;;;;;7.38;1.40;;;;;;;;;;5124642;28;20553;-81
2023/07/13 13:40:47;;;;;;;4.85;1.40;;;;;;;;;;5121643;28;20043;-81
2023/07/13 13:43:27;;;;;;;6.75;1.50;;;;;;;;;;5087460;28;20060;-80
2023/07/13 13:45:57;;;;;;;10.15;1.80;;;;;;;;;;5118067;28;20047;-81
2023/07/13 13:48:30;;;;;;;4.13;1.17;;;;;;;;;;5117937;28;20103;-81
2023/07/13 13:50:57;;;;;;;6.03;1.30;;;;;;;;;;5126507;28;20043;-81
2023/07/13 13:53:26;;;;;;;4.78;1.35;;;;;;;;;;5103445;28;20075;-81
2023/07/13 13:55:52;;;;;;;4.82;1.20;;;;;;;;;;5120764;28;20120;-82
2023/07/13 13:58:21;;;;;;;5.82;1.38;;;;;;;;;;5126017;28;20058;-81
2023/07/13 14:00:49;;;;;;;5.70;1.17;;;;;;;;;;5127807;28;20048;-81
2023/07/13 14:03:19;;;;;;;4.60;1.20;;;;;;;;;;5127982;28;20047;-82
2023/07/13 14:05:46;;;;;;;4.60;1.27;;;;;;;;;;5107573;28;20055;-80
2023/07/13 14:08:16;;;;;;;3.67;1.00;;;;;;;;;;5127200;28;20416;-81
2023/07/13 14:10:43;;;;;;;7.15;1.65;;;;;;;;;;5106462;28;20048;-81
2023/07/13 14:13:17;;;;;;;5.70;1.33;;;;;;;;;;5123744;28;20039;-81
2023/07/13 14:15:43;;;;;;;4.38;1.10;;;;;;;;;;5124373;28;20148;-80
2023/07/13 14:18:09;;;;;;;5.13;1.10;;;;;;;;;;5125037;28;20080;-81
2023/07/13 14:20:36;;;;;;;6.53;1.30;;;;;;;;;;5125151;28;20054;-81
2023/07/13 14:23:05;;;;;;;5.90;1.70;;;;;;;;;;5128132;27;20373;-81
2023/07/13 14:25:31;;;;;;;4.78;1.50;;;;;;;;;;5145351;27;20063;-80
2023/07/13 14:27:58;;;;;;;5.85;1.25;;;;;;;;;;5106584;28;20055;-79
2023/07/13 14:30:25;;;;;;;5.53;1.50;;;;;;;;;;5112477;28;20046;-79
2023/07/13 14:32:51;;;;;;;7.20;1.63;;;;;;;;;;5084591;28;20044;-79
2023/07/13 14:35:20;;;;;;;5.80;1.40;;;;;;;;;;5119893;28;20059;-82
2023/07/13 14:37:47;;;;;;;4.50;1.38;;;;;;;;;;5120199;28;20052;-81
2023/07/13 14:40:32;;;;;;;4.07;1.00;;;;;;;;;;5117804;28;20039;-79